createdAt,value
2019-03-08T00:01:26.990Z,8.90
2019-03-08T00:04:08.441Z,8.90
2019-03-08T00:06:49.700Z,8.90
2019-03-08T00:09:29.538Z,8.90
2019-03-08T00:12:09.250Z,8.90
2019-03-08T00:14:50.134Z,8.90
2019-03-08T00:17:29.860Z,8.90
2019-03-08T00:20:10.150Z,8.90
2019-03-08T00:22:49.859Z,8.90
2019-03-08T00:25:29.929Z,9.00
2019-03-08T00:28:09.628Z,9.00
2019-03-08T00:30:50.558Z,8.90
2019-03-08T00:33:30.199Z,8.90
2019-03-08T00:36:10.012Z,8.80
2019-03-08T00:38:49.738Z,8.80
2019-03-08T00:41:29.462Z,8.70
2019-03-08T00:44:10.330Z,8.70
2019-03-08T00:46:50.133Z,8.70
2019-03-08T00:49:29.813Z,8.70
2019-03-08T00:52:09.533Z,8.80
2019-03-08T00:54:49.452Z,8.80
2019-03-08T00:57:29.095Z,8.80
2019-03-08T01:00:14.028Z,8.70
2019-03-08T01:02:53.948Z,8.70
2019-03-08T01:05:33.657Z,8.70
2019-03-08T01:08:13.452Z,8.60
2019-03-08T01:10:53.643Z,8.60
2019-03-08T01:13:33.453Z,8.60
2019-03-08T01:16:13.346Z,8.60
2019-03-08T01:18:53.210Z,8.60
2019-03-08T01:21:33.057Z,8.60
2019-03-08T01:24:12.840Z,8.50
2019-03-08T01:26:52.592Z,8.50
2019-03-08T01:29:32.322Z,8.50
2019-03-08T01:32:12.418Z,8.60
2019-03-08T01:34:52.191Z,8.60
2019-03-08T01:37:31.897Z,8.60
2019-03-08T01:40:11.829Z,8.60
2019-03-08T01:42:51.845Z,8.70
2019-03-08T01:45:31.851Z,8.70
2019-03-08T01:48:11.605Z,8.60
2019-03-08T01:50:55.399Z,8.60
2019-03-08T01:53:35.049Z,8.90
2019-03-08T01:56:14.826Z,8.80
2019-03-08T01:58:54.551Z,8.80
2019-03-08T02:01:34.196Z,8.90
2019-03-08T02:04:14.109Z,8.80
2019-03-08T02:06:53.877Z,8.80
2019-03-08T02:09:33.661Z,8.80
2019-03-08T02:12:13.625Z,8.80
2019-03-08T02:14:53.333Z,8.80
2019-03-08T02:17:34.205Z,8.90
2019-03-08T02:20:17.109Z,8.90
2019-03-08T02:22:56.955Z,9.00
2019-03-08T02:25:36.749Z,9.00
2019-03-08T02:28:16.937Z,8.90
2019-03-08T02:30:56.866Z,8.90
2019-03-08T02:33:36.689Z,9.00
2019-03-08T02:36:17.632Z,9.00
2019-03-08T02:38:57.378Z,8.90
2019-03-08T02:41:39.236Z,8.90
2019-03-08T02:44:19.392Z,8.90
2019-03-08T02:46:59.224Z,9.00
2019-03-08T02:49:39.008Z,9.00
2019-03-08T02:52:18.880Z,9.00
2019-03-08T02:54:58.679Z,9.00
2019-03-08T02:57:38.366Z,9.00
2019-03-08T03:00:19.829Z,9.00
2019-03-08T03:02:59.555Z,8.90
2019-03-08T03:05:39.274Z,8.90
2019-03-08T03:08:19.312Z,9.00
2019-03-08T03:10:58.993Z,9.00
2019-03-08T03:13:38.750Z,9.00
2019-03-08T03:16:18.531Z,9.00
2019-03-08T03:18:58.347Z,9.00
2019-03-08T03:21:38.051Z,9.10
2019-03-08T03:24:17.989Z,9.10
2019-03-08T03:26:57.681Z,9.10
2019-03-08T03:29:47.154Z,9.10
2019-03-08T03:32:33.686Z,9.10
2019-03-08T03:35:13.458Z,9.00
2019-03-08T03:37:53.258Z,9.00
2019-03-08T03:40:32.891Z,9.10
2019-03-08T03:43:12.699Z,9.10
2019-03-08T03:45:52.517Z,9.10
2019-03-08T03:48:32.298Z,9.00
2019-03-08T03:51:12.246Z,8.90
2019-03-08T03:53:52.057Z,9.00
2019-03-08T03:56:32.053Z,9.00
2019-03-08T03:59:12.641Z,9.00
2019-03-08T04:01:53.875Z,8.90
2019-03-08T04:04:33.217Z,8.90
2019-03-08T04:07:12.880Z,8.90
2019-03-08T04:09:52.593Z,9.00
2019-03-08T04:12:32.347Z,9.00
2019-03-08T04:15:14.468Z,9.00
2019-03-08T04:17:54.232Z,9.00
2019-03-08T04:20:33.961Z,9.00
2019-03-08T04:23:14.018Z,8.90
2019-03-08T04:25:53.653Z,9.00
2019-03-08T04:28:34.034Z,9.00
2019-03-08T04:31:14.985Z,9.00
2019-03-08T04:33:54.855Z,9.00
2019-03-08T04:36:34.111Z,9.00
2019-03-08T04:39:13.748Z,9.00
2019-03-08T04:41:53.401Z,8.90
2019-03-08T04:44:33.403Z,8.90
2019-03-08T04:47:18.279Z,8.90
2019-03-08T04:49:58.452Z,8.90
2019-03-08T04:52:38.368Z,8.90
2019-03-08T04:55:18.364Z,8.90
2019-03-08T04:57:59.856Z,9.00
2019-03-08T05:00:39.777Z,9.00
2019-03-08T05:03:27.109Z,8.90
2019-03-08T05:06:07.026Z,8.80
2019-03-08T05:08:47.828Z,8.80
2019-03-08T05:11:27.661Z,8.80
2019-03-08T05:14:07.387Z,8.70
2019-03-08T05:16:47.049Z,8.70
2019-03-08T05:19:27.124Z,8.80
2019-03-08T05:22:06.750Z,8.70
2019-03-08T05:24:46.347Z,8.70
2019-03-08T05:27:26.018Z,8.80
2019-03-08T05:30:06.800Z,8.80
2019-03-08T05:32:46.431Z,8.70
2019-03-08T05:35:26.272Z,8.70
2019-03-08T05:38:06.155Z,8.70
2019-03-08T05:40:46.261Z,8.60
2019-03-08T05:43:26.062Z,8.70
2019-03-08T05:46:05.977Z,8.70
2019-03-08T05:48:45.850Z,8.60
2019-03-08T05:51:25.824Z,8.70
2019-03-08T05:54:07.203Z,8.70
2019-03-08T05:56:47.240Z,8.70
2019-03-08T05:59:26.957Z,8.60
2019-03-08T06:02:07.238Z,8.70
2019-03-08T06:04:50.725Z,8.70
2019-03-08T06:07:30.583Z,8.80
2019-03-08T06:10:37.054Z,8.80
2019-03-08T06:13:16.742Z,8.80
2019-03-08T06:15:56.625Z,8.80
2019-03-08T06:18:36.390Z,8.80
2019-03-08T06:21:17.742Z,8.80
2019-03-08T06:23:57.419Z,8.70
2019-03-08T06:26:37.207Z,8.80
2019-03-08T06:29:18.279Z,8.80
2019-03-08T06:31:59.267Z,8.80
2019-03-08T06:34:39.157Z,8.80
2019-03-08T06:37:19.146Z,8.90
2019-03-08T06:40:00.655Z,8.90
2019-03-08T06:42:40.504Z,8.90
2019-03-08T06:45:20.309Z,8.90
2019-03-08T06:48:00.019Z,9.10
2019-03-08T06:50:39.717Z,9.50
2019-03-08T06:53:19.510Z,10.20
2019-03-08T06:55:59.623Z,10.10
2019-03-08T06:58:45.425Z,9.70
2019-03-08T07:01:28.144Z,9.40
2019-03-08T07:04:07.971Z,9.40
2019-03-08T07:06:47.726Z,9.70
2019-03-08T07:09:27.451Z,10.00
2019-03-08T07:12:07.139Z,10.50
2019-03-08T07:14:46.828Z,10.40
2019-03-08T07:17:29.679Z,10.50
2019-03-08T07:20:32.842Z,10.20
2019-03-08T07:23:32.301Z,10.00
2019-03-08T07:26:29.762Z,9.80
2019-03-08T07:29:26.637Z,9.70
2019-03-08T07:32:13.386Z,9.70
2019-03-08T07:35:21.572Z,9.70
2019-03-08T07:38:09.456Z,10.50
2019-03-08T07:41:17.037Z,12.90
2019-03-08T07:44:30.929Z,14.00
2019-03-08T07:47:26.109Z,11.90
2019-03-08T07:50:16.608Z,11.30
2019-03-08T07:53:04.296Z,10.80
2019-03-08T07:55:50.270Z,10.80
2019-03-08T07:58:47.547Z,10.70
2019-03-08T08:01:39.049Z,10.70
2019-03-08T08:04:36.651Z,10.60
2019-03-08T08:07:29.319Z,10.30
2019-03-08T08:10:19.219Z,10.20
2019-03-08T08:13:20.792Z,10.20
2019-03-08T08:16:22.748Z,10.20
2019-03-08T08:19:08.808Z,10.20
2019-03-08T08:22:04.345Z,10.10
2019-03-08T08:25:05.836Z,10.00
2019-03-08T08:28:07.772Z,10.10
2019-03-08T08:31:03.462Z,10.10
2019-03-08T08:34:21.898Z,10.30
2019-03-08T08:37:10.964Z,10.40
2019-03-08T08:40:27.799Z,10.40
2019-03-08T08:43:20.346Z,10.40
2019-03-08T08:46:17.749Z,10.40
2019-03-08T08:49:10.595Z,10.20
2019-03-08T08:52:04.675Z,10.30
2019-03-08T08:55:06.423Z,10.50
2019-03-08T08:58:03.677Z,10.70
2019-03-08T09:00:56.304Z,10.80
2019-03-08T09:03:44.939Z,10.90
2019-03-08T09:06:36.579Z,10.90
2019-03-08T09:09:22.672Z,10.70
2019-03-08T09:12:28.137Z,10.70
2019-03-08T09:15:20.459Z,10.80
2019-03-08T09:18:06.861Z,10.80
2019-03-08T09:21:04.381Z,10.90
2019-03-08T09:23:49.064Z,11.30
2019-03-08T09:26:46.584Z,11.20
2019-03-08T09:29:43.973Z,11.10
2019-03-08T09:32:30.035Z,11.00
2019-03-08T09:35:26.853Z,10.80
2019-03-08T09:38:32.606Z,10.70
2019-03-08T09:41:41.355Z,10.70
2019-03-08T09:44:30.376Z,10.60
2019-03-08T09:47:31.888Z,10.60
2019-03-08T09:50:26.302Z,10.80
2019-03-08T09:53:14.036Z,11.00
2019-03-08T09:56:10.187Z,11.20
2019-03-08T09:59:21.311Z,11.30
2019-03-08T10:02:20.494Z,11.60
2019-03-08T10:05:18.109Z,11.50
2019-03-08T10:08:20.181Z,11.20
2019-03-08T10:11:11.293Z,10.80
2019-03-08T10:14:12.693Z,10.80
2019-03-08T10:17:07.949Z,11.00
2019-03-08T10:20:06.431Z,11.20
2019-03-08T10:22:56.879Z,11.40
2019-03-08T10:25:47.318Z,11.50
2019-03-08T10:28:36.101Z,11.50
2019-03-08T10:31:30.060Z,11.50
2019-03-08T10:34:28.747Z,11.40
2019-03-08T10:37:20.087Z,11.20
2019-03-08T10:40:24.904Z,11.20
2019-03-08T10:43:14.957Z,10.90
2019-03-08T10:46:15.639Z,10.90
2019-03-08T10:49:18.901Z,11.00
2019-03-08T10:52:17.257Z,11.70
2019-03-08T10:55:09.196Z,12.10
2019-03-08T10:58:06.715Z,12.30
2019-03-08T11:01:20.543Z,12.30
2019-03-08T11:04:23.271Z,12.20
2019-03-08T11:07:10.586Z,12.10
2019-03-08T11:10:09.603Z,11.90
2019-03-08T11:12:58.994Z,11.50
2019-03-08T11:15:56.466Z,11.30
2019-03-08T11:18:55.259Z,11.20
2019-03-08T11:21:44.325Z,11.10
2019-03-08T11:24:35.216Z,11.10
2019-03-08T11:27:37.612Z,11.00
2019-03-08T11:30:35.662Z,10.90
2019-03-08T11:33:32.994Z,10.80
2019-03-08T11:36:19.227Z,10.60
2019-03-08T11:39:08.884Z,10.40
2019-03-08T11:42:00.960Z,10.30
2019-03-08T11:45:06.762Z,10.60
2019-03-08T11:48:06.547Z,10.50
2019-03-08T11:51:00.270Z,10.60
2019-03-08T11:53:56.271Z,10.70
2019-03-08T11:56:56.178Z,10.80
2019-03-08T12:00:02.487Z,10.80
2019-03-08T12:03:08.955Z,10.70
2019-03-08T12:06:08.131Z,10.50
2019-03-08T12:09:09.996Z,10.40
2019-03-08T12:12:09.383Z,10.50
2019-03-08T12:15:08.678Z,10.40
2019-03-08T12:18:10.472Z,10.20
2019-03-08T12:21:07.926Z,10.20
2019-03-08T12:24:05.322Z,10.10
2019-03-08T12:26:54.713Z,10.30
2019-03-08T12:29:53.017Z,10.30
2019-03-08T12:32:43.635Z,10.40
2019-03-08T12:35:38.166Z,10.60
2019-03-08T12:38:37.003Z,10.70
2019-03-08T12:41:22.272Z,10.60
2019-03-08T12:44:22.360Z,10.60
2019-03-08T12:47:13.423Z,10.60
2019-03-08T12:50:00.294Z,10.80
2019-03-08T12:52:57.705Z,11.10
2019-03-08T12:55:58.268Z,11.50
2019-03-08T12:59:15.118Z,11.60
2019-03-08T13:02:15.159Z,11.20
2019-03-08T13:05:24.982Z,10.80
2019-03-08T13:08:23.264Z,10.70
2019-03-08T13:11:06.706Z,10.80
2019-03-08T13:13:46.492Z,10.60
2019-03-08T13:16:26.203Z,10.70
2019-03-08T13:19:06.242Z,10.80
2019-03-08T13:21:46.005Z,10.90
2019-03-08T13:24:29.035Z,11.00
2019-03-08T13:27:08.884Z,11.40
2019-03-08T13:29:48.598Z,11.50
2019-03-08T13:32:28.475Z,11.40
2019-03-08T13:35:09.667Z,11.40
2019-03-08T13:37:49.471Z,11.10
2019-03-08T13:40:29.171Z,11.10
2019-03-08T13:43:08.931Z,11.20
2019-03-08T13:45:48.440Z,11.30
2019-03-08T13:48:28.210Z,11.40
2019-03-08T13:51:07.821Z,11.60
2019-03-08T13:53:47.497Z,11.70
2019-03-08T13:56:27.163Z,11.80
2019-03-08T13:59:06.577Z,11.60
2019-03-08T14:01:45.929Z,11.60
2019-03-08T14:04:25.964Z,11.70
2019-03-08T14:07:05.631Z,11.50
2019-03-08T14:09:45.342Z,11.50
2019-03-08T14:12:25.190Z,11.60
2019-03-08T14:15:07.434Z,11.80
2019-03-08T14:17:47.540Z,12.00
2019-03-08T14:20:27.109Z,12.40
2019-03-08T14:23:07.044Z,12.70
2019-03-08T14:25:46.618Z,12.40
2019-03-08T14:28:26.285Z,12.10
2019-03-08T14:31:13.981Z,12.00
2019-03-08T14:33:53.702Z,11.90
2019-03-08T14:36:33.339Z,11.60
2019-03-08T14:39:13.419Z,11.40
2019-03-08T14:42:19.303Z,11.30
2019-03-08T14:45:17.711Z,11.50
2019-03-08T14:47:59.288Z,11.50
2019-03-08T14:50:38.993Z,11.60
2019-03-08T14:53:18.662Z,11.40
2019-03-08T14:55:59.150Z,11.30
2019-03-08T14:58:40.435Z,11.30
2019-03-08T15:01:21.419Z,11.30
2019-03-08T15:04:00.797Z,11.30
2019-03-08T15:06:42.010Z,11.50
2019-03-08T15:09:22.056Z,11.60
2019-03-08T15:12:01.692Z,11.50
2019-03-08T15:14:41.443Z,10.60
2019-03-08T15:17:21.048Z,10.20
2019-03-08T15:20:00.755Z,9.80
2019-03-08T15:22:40.373Z,9.40
2019-03-08T15:25:20.058Z,8.60
2019-03-08T15:27:59.764Z,8.00
2019-03-08T15:30:39.573Z,7.80
2019-03-08T15:33:19.249Z,7.50
2019-03-08T15:35:58.877Z,7.40
2019-03-08T15:38:38.524Z,7.10
2019-03-08T15:41:21.444Z,7.00
2019-03-08T15:43:59.779Z,6.90
2019-03-08T15:46:39.692Z,7.10
2019-03-08T15:49:19.405Z,7.30
2019-03-08T15:51:59.914Z,7.50
2019-03-08T15:54:40.871Z,7.70
2019-03-08T15:57:20.646Z,7.70
2019-03-08T16:00:00.402Z,7.60
2019-03-08T16:02:44.521Z,7.50
2019-03-08T16:05:28.180Z,7.40
2019-03-08T16:08:05.779Z,7.30
2019-03-08T16:10:45.520Z,7.40
2019-03-08T16:13:25.246Z,7.40
2019-03-08T16:16:04.989Z,7.40
2019-03-08T16:18:47.983Z,7.40
2019-03-08T16:21:26.202Z,7.50
2019-03-08T16:24:06.052Z,7.50
2019-03-08T16:26:45.633Z,7.50
2019-03-08T16:29:26.604Z,7.50
2019-03-08T16:32:11.596Z,7.50
2019-03-08T16:34:51.036Z,7.50
2019-03-08T16:37:50.943Z,7.50
2019-03-08T16:40:48.124Z,7.50
2019-03-08T16:43:34.865Z,7.50
2019-03-08T16:46:20.996Z,7.50
2019-03-08T16:49:20.060Z,7.50
2019-03-08T16:52:12.790Z,7.40
2019-03-08T16:55:22.155Z,7.40
2019-03-08T16:58:32.718Z,7.30
2019-03-08T17:01:37.372Z,7.30
2019-03-08T17:04:25.887Z,7.30
2019-03-08T17:07:12.086Z,7.30
2019-03-08T17:10:11.249Z,7.20
2019-03-08T17:12:59.872Z,7.20
2019-03-08T17:15:59.452Z,7.20
2019-03-08T17:18:47.197Z,7.20
2019-03-08T17:21:58.400Z,7.20
2019-03-08T17:24:56.132Z,7.20
2019-03-08T17:27:50.006Z,7.20
2019-03-08T17:30:54.451Z,7.10
2019-03-08T17:33:51.970Z,7.00
2019-03-08T17:36:45.623Z,7.00
2019-03-08T17:39:41.563Z,6.90
2019-03-08T17:42:47.747Z,6.80
2019-03-08T17:45:49.496Z,6.70
2019-03-08T17:48:46.293Z,6.60
2019-03-08T17:51:41.355Z,6.50
2019-03-08T17:54:38.618Z,6.50
2019-03-08T17:57:28.003Z,6.60
2019-03-08T18:00:33.860Z,6.60
2019-03-08T18:03:55.654Z,6.60
2019-03-08T18:06:58.780Z,6.60
2019-03-08T18:10:13.684Z,6.70
2019-03-08T18:13:16.883Z,6.60
2019-03-08T18:16:28.847Z,6.60
2019-03-08T18:19:43.426Z,6.70
2019-03-08T18:22:47.113Z,6.70
2019-03-08T18:26:05.042Z,6.80
2019-03-08T18:29:19.726Z,6.80
2019-03-08T18:32:22.772Z,6.90
2019-03-08T18:35:30.968Z,6.90
2019-03-08T18:38:45.158Z,6.90
2019-03-08T18:42:03.471Z,6.90
2019-03-08T18:45:06.707Z,6.80
2019-03-08T18:48:24.282Z,6.70
2019-03-08T18:51:32.331Z,6.70
2019-03-08T18:54:48.328Z,6.70
2019-03-08T18:58:14.291Z,6.60
2019-03-08T19:01:33.916Z,6.70
2019-03-08T19:04:42.234Z,6.70
2019-03-08T19:07:57.807Z,6.70
2019-03-08T19:11:11.326Z,6.70
2019-03-08T19:14:19.451Z,6.80
2019-03-08T19:17:34.350Z,6.80
2019-03-08T19:20:49.531Z,6.80
2019-03-08T19:23:58.131Z,6.70
2019-03-08T19:27:20.187Z,6.70
2019-03-08T19:30:45.175Z,6.80
2019-03-08T19:34:16.063Z,6.90
2019-03-08T19:37:29.041Z,6.90
2019-03-08T19:40:42.757Z,6.90
2019-03-08T19:43:54.211Z,7.00
2019-03-08T19:47:15.082Z,7.00
2019-03-08T19:50:40.586Z,6.90
2019-03-08T19:53:54.267Z,6.90
2019-03-08T19:57:24.582Z,6.90
2019-03-08T20:00:38.615Z,6.80
2019-03-08T20:03:56.234Z,6.80
2019-03-08T20:07:00.157Z,6.80
2019-03-08T20:10:15.380Z,6.80
2019-03-08T20:13:37.794Z,6.80
2019-03-08T20:17:08.288Z,6.80
2019-03-08T20:20:22.302Z,6.70
2019-03-08T20:23:38.211Z,6.50
2019-03-08T20:26:51.427Z,6.40
2019-03-08T20:29:55.386Z,6.40
2019-03-08T20:33:04.647Z,6.30
2019-03-08T20:36:15.209Z,6.30
2019-03-08T20:39:31.368Z,6.20
2019-03-08T20:42:49.375Z,6.20
2019-03-08T20:45:52.159Z,6.10
2019-03-08T20:48:48.624Z,6.10
2019-03-08T20:51:45.792Z,6.10
2019-03-08T20:54:43.987Z,6.10
2019-03-08T20:57:39.948Z,6.10
2019-03-08T21:00:36.000Z,6.00
2019-03-08T21:03:32.067Z,6.00
2019-03-08T21:06:28.834Z,6.00
2019-03-08T21:09:24.947Z,5.90
2019-03-08T21:12:20.753Z,5.90
2019-03-08T21:15:25.429Z,5.80
2019-03-08T21:18:16.414Z,5.80
2019-03-08T21:21:12.338Z,5.70
2019-03-08T21:24:09.813Z,5.70
2019-03-08T21:27:06.027Z,5.70
2019-03-08T21:30:05.961Z,5.70
2019-03-08T21:33:02.401Z,5.60
2019-03-08T21:35:59.423Z,5.60
2019-03-08T21:38:55.846Z,5.60
2019-03-08T21:41:52.506Z,5.60
2019-03-08T21:44:49.158Z,5.60
2019-03-08T21:47:46.132Z,5.60
2019-03-08T21:50:43.144Z,5.70
2019-03-08T21:53:39.871Z,5.70
2019-03-08T21:56:36.771Z,5.80
2019-03-08T21:59:32.867Z,5.90
2019-03-08T22:02:29.021Z,5.90
2019-03-08T22:05:28.995Z,6.00
2019-03-08T22:08:25.529Z,6.10
2019-03-08T22:11:28.483Z,6.20
2019-03-08T22:14:24.216Z,6.20
2019-03-08T22:17:22.603Z,6.30
2019-03-08T22:20:19.259Z,6.30
2019-03-08T22:23:15.054Z,6.40
2019-03-08T22:26:10.822Z,6.50
2019-03-08T22:29:06.911Z,6.50
2019-03-08T22:32:02.767Z,6.50
2019-03-08T22:34:59.178Z,6.60
2019-03-08T22:37:56.897Z,6.60
2019-03-08T22:40:53.261Z,6.60
2019-03-08T22:43:49.051Z,6.60
2019-03-08T22:46:46.100Z,6.60
2019-03-08T22:49:43.789Z,6.60
2019-03-08T22:52:40.557Z,6.60
2019-03-08T22:55:38.250Z,6.60
2019-03-08T22:58:34.889Z,6.50
2019-03-08T23:01:50.815Z,6.50
2019-03-08T23:04:46.915Z,6.50
2019-03-08T23:07:43.762Z,6.50
2019-03-08T23:10:42.011Z,6.50
2019-03-08T23:13:39.093Z,6.50
2019-03-08T23:16:34.740Z,6.50
2019-03-08T23:19:31.630Z,6.50
2019-03-08T23:22:28.120Z,6.40
2019-03-08T23:25:24.166Z,6.50
2019-03-08T23:28:41.805Z,6.50
2019-03-08T23:31:53.172Z,6.50
2019-03-08T23:34:49.107Z,6.50
2019-03-08T23:37:46.704Z,6.50
2019-03-08T23:40:43.483Z,6.60
2019-03-08T23:43:39.433Z,6.60
2019-03-08T23:46:35.254Z,6.60
2019-03-08T23:49:31.104Z,6.60
2019-03-08T23:52:27.153Z,6.70
2019-03-08T23:55:23.665Z,6.80
2019-03-08T23:58:20.073Z,6.90
